Time;durP1;ratioP1;P1;durP2;ratioP2;P2;SDS_P1;SDS_P2;PMS_P1;PMS_P2;Temp;Humidity;BMP_temperature;BMP_pressure;BME280_temperature;BME280_humidity;BME280_pressure;Samples;Min_cycle;Max_cycle;Signal;HPM_P1;HPM_P2
2021/03/09 00:00:40;;;;;;;;;;;;;;;20.75;48.46;101822.25;2084109;28;2038;-77
2021/03/09 00:01:40;;;;;;;;;;;;;;;20.74;48.48;101817.75;2086765;28;2183;-74
2021/03/09 00:02:41;;;;;;;;;;;;;;;20.75;48.65;101819.41;2091064;28;1072;-74
2021/03/09 00:03:42;;;;;;;;;;;;;;;20.75;48.64;101821.41;2086767;28;1024;-74
2021/03/09 00:04:43;;;;;;;;;;;;;;;20.74;48.64;101826.28;2091141;28;1699;-74
2021/03/09 00:05:44;;;;;;;;;;;;;;;20.75;48.68;101816.56;2091578;28;1094;-74
2021/03/09 00:06:45;;;;;;;;;;;;;;;20.75;48.71;101818.56;2091599;28;1625;-73
2021/03/09 00:07:45;;;;;;;;;;;;;;;20.76;48.63;101820.25;2091330;28;1258;-72
2021/03/09 00:08:46;;;;;;;;;;;;;;;20.75;48.65;101816.56;2088969;28;1077;-74
2021/03/09 00:09:47;;;;;;;;;;;;;;;20.74;48.55;101820.59;2090612;28;1639;-73
2021/03/09 00:10:47;;;;;;;;;;;;;;;20.74;48.72;101811.22;2091227;28;2105;-73
2021/03/09 00:11:48;;;;;;;;;;;;;;;20.75;48.67;101813.72;2093227;28;1663;-75
2021/03/09 00:12:49;;;;;;;;;;;;;;;20.76;48.57;101808.88;2091102;28;2174;-75
2021/03/09 00:13:50;;;;;;;;;;;;;;;20.75;48.63;101819.41;2092315;28;1910;-75
2021/03/09 00:14:50;;;;;;;;;;;;;;;20.75;48.66;101816.56;2095397;28;1231;-75
2021/03/09 00:16:05;;;;;;;;;;;;;;;20.75;48.60;101808.03;2090090;28;1112;-75
2021/03/09 00:17:05;;;;;;;;;;;;;;;20.76;48.65;101815.41;2092729;28;1816;-75
2021/03/09 00:18:06;;;;;;;;;;;;;;;20.76;48.57;101808.88;2098563;28;1675;-78
2021/03/09 00:19:07;;;;;;;;;;;;;;;20.74;48.67;101814.91;2091678;28;1168;-75
2021/03/09 00:20:08;;;;;;;;;;;;;;;20.75;48.58;101813.72;2090962;28;1722;-75
2021/03/09 00:21:09;;;;;;;;;;;;;;;20.76;48.75;101817.41;2091253;28;1088;-74
2021/03/09 00:22:10;;;;;;;;;;;;;;;20.76;48.64;101818.25;2088142;28;1360;-75
2021/03/09 00:23:11;;;;;;;;;;;;;;;20.76;48.67;101817.41;2091949;28;2183;-76
2021/03/09 00:24:11;;;;;;;;;;;;;;;20.76;48.79;101818.25;2091570;28;1001;-75
2021/03/09 00:25:12;;;;;;;;;;;;;;;20.75;48.63;101819.41;2093235;28;1098;-75
2021/03/09 00:26:13;;;;;;;;;;;;;;;20.75;48.76;101816.56;2097820;28;1523;-77
2021/03/09 00:27:13;;;;;;;;;;;;;;;20.77;48.84;101819.09;2091110;28;1045;-75
2021/03/09 00:28:14;;;;;;;;;;;;;;;20.77;48.75;101814.25;2089584;28;1852;-74
2021/03/09 00:29:15;;;;;;;;;;;;;;;20.77;48.84;101814.25;2092357;28;1275;-75
2021/03/09 00:30:16;;;;;;;;;;;;;;;20.77;48.81;101811.41;2093009;28;1106;-74
2021/03/09 00:31:16;;;;;;;;;;;;;;;20.77;48.73;101817.09;2090645;28;1789;-74
2021/03/09 00:32:17;;;;;;;;;;;;;;;20.76;48.81;101815.41;2091619;28;2848;-75
2021/03/09 00:33:18;;;;;;;;;;;;;;;20.77;48.69;101816.25;2090628;28;2211;-71
2021/03/09 00:34:19;;;;;;;;;;;;;;;20.76;48.67;101817.41;2090955;28;1918;-73
2021/03/09 00:35:20;;;;;;;;;;;;;;;20.75;48.78;101812.88;2090778;28;1099;-73
2021/03/09 00:36:20;;;;;;;;;;;;;;;20.72;48.58;101817.22;2086830;28;1338;-74
2021/03/09 00:37:21;;;;;;;;;;;;;;;20.72;48.70;101813.53;2090465;28;2339;-75
2021/03/09 00:38:22;;;;;;;;;;;;;;;20.72;48.67;101820.06;2094137;28;960;-75
2021/03/09 00:39:23;;;;;;;;;;;;;;;20.71;48.57;101818.41;2091016;28;1128;-75
2021/03/09 00:40:23;;;;;;;;;;;;;;;20.71;48.54;101815.56;2094931;28;1111;-74
2021/03/09 00:41:24;;;;;;;;;;;;;;;20.73;48.50;101812.38;2096994;28;1166;-73
2021/03/09 00:42:25;;;;;;;;;;;;;;;20.73;48.68;101818.91;2093382;28;1860;-74
2021/03/09 00:43:26;;;;;;;;;;;;;;;20.73;48.59;101818.06;2089666;28;1580;-74
2021/03/09 00:44:26;;;;;;;;;;;;;;;20.74;48.51;101811.22;2093444;28;1120;-73
2021/03/09 00:45:27;;;;;;;;;;;;;;;20.73;48.36;101816.06;2094094;28;1122;-74
2021/03/09 00:46:33;;;;;;;;;;;;;;;20.75;48.45;101812.88;2091680;28;1337;-74
2021/03/09 00:47:34;;;;;;;;;;;;;;;20.73;48.54;101807.53;2090629;28;1679;-77
2021/03/09 00:48:35;;;;;;;;;;;;;;;20.75;48.62;101815.72;2091090;28;1052;-77
2021/03/09 00:49:36;;;;;;;;;;;;;;;20.75;48.63;101812.88;2091767;28;1032;-77
2021/03/09 00:50:37;;;;;;;;;;;;;;;20.75;48.66;101808.03;2092556;28;1119;-78
2021/03/09 00:51:38;;;;;;;;;;;;;;;20.76;48.42;101814.56;2086856;28;1080;-82
2021/03/09 00:52:38;;;;;;;;;;;;;;;20.77;48.56;101810.56;2090751;28;1743;-77
2021/03/09 00:53:39;;;;;;;;;;;;;;;20.76;48.53;101806.88;2088876;28;1708;-77
2021/03/09 00:54:40;;;;;;;;;;;;;;;20.77;48.39;101813.41;2091821;28;1918;-76
2021/03/09 00:55:41;;;;;;;;;;;;;;;20.76;48.48;101809.72;2091052;28;1624;-77
2021/03/09 00:56:42;;;;;;;;;;;;;;;20.77;48.64;101807.72;2087174;28;1698;-77
2021/03/09 00:57:42;;;;;;;;;;;;;;;20.76;48.49;101806.03;2090273;28;1373;-76
2021/03/09 00:58:43;;;;;;;;;;;;;;;20.76;48.58;101798.34;2091269;28;1204;-76
2021/03/09 00:59:44;;;;;;;;;;;;;;;20.76;48.46;101801.19;2089714;28;1736;-81
2021/03/09 01:00:44;;;;;;;;;;;;;;;20.76;48.58;101797.50;2090624;28;1754;-85
2021/03/09 01:01:45;;;;;;;;;;;;;;;20.75;48.59;101790.97;2090376;28;1771;-75
2021/03/09 01:02:46;;;;;;;;;;;;;;;20.76;48.42;101798.34;2084254;28;2110;-77
2021/03/09 01:03:47;;;;;;;;;;;;;;;20.76;48.64;101786.97;2090158;28;1712;-78
2021/03/09 01:04:48;;;;;;;;;;;;;;;20.76;48.63;101792.66;2090938;28;968;-77
2021/03/09 01:05:49;;;;;;;;;;;;;;;20.77;48.51;101791.50;2091102;28;1016;-80
2021/03/09 01:06:49;;;;;;;;;;;;;;;20.77;48.39;101794.34;2093729;28;920;-78
2021/03/09 01:07:50;;;;;;;;;;;;;;;20.78;48.57;101789.47;2090351;28;1326;-77
2021/03/09 01:08:51;;;;;;;;;;;;;;;20.77;48.60;101794.34;2084048;28;1200;-76
2021/03/09 01:09:52;;;;;;;;;;;;;;;20.76;48.56;101789.81;2090729;28;1087;-77
2021/03/09 01:10:52;;;;;;;;;;;;;;;20.76;48.77;101786.97;2091155;28;1044;-76
2021/03/09 01:11:53;;;;;;;;;;;;;;;20.77;48.58;101788.66;2092720;28;1200;-77
2021/03/09 01:12:54;;;;;;;;;;;;;;;20.77;48.62;101791.50;2085467;28;1759;-75
2021/03/09 01:13:55;;;;;;;;;;;;;;;20.78;48.81;101790.31;2090523;28;1923;-75
2021/03/09 01:14:56;;;;;;;;;;;;;;;20.78;48.68;101784.63;2081507;28;1942;-77
2021/03/09 01:15:57;;;;;;;;;;;;;;;20.79;48.66;101791.16;2094575;28;1152;-77
2021/03/09 01:16:58;;;;;;;;;;;;;;;20.77;48.66;101780.09;2090387;28;1677;-76
2021/03/09 01:17:59;;;;;;;;;;;;;;;20.77;48.74;101779.28;2088786;28;1706;-76
2021/03/09 01:19:00;;;;;;;;;;;;;;;20.77;48.90;101782.97;2090067;28;1751;-77
2021/03/09 01:20:00;;;;;;;;;;;;;;;20.78;48.92;101778.94;2090981;28;1121;-74
2021/03/09 01:21:01;;;;;;;;;;;;;;;20.78;48.91;101778.09;2081464;28;1064;-74
2021/03/09 01:22:02;;;;;;;;;;;;;;;20.78;49.02;101776.09;2088589;28;3135;-74
2021/03/09 01:23:03;;;;;;;;;;;;;;;20.79;48.98;101774.94;2089241;28;1111;-74
2021/03/09 01:24:03;;;;;;;;;;;;;;;20.79;49.15;101774.09;2083722;28;1989;-76
2021/03/09 01:25:04;;;;;;;;;;;;;;;20.80;49.26;101779.44;2090148;28;1616;-75
2021/03/09 01:26:05;;;;;;;;;;;;;;;20.80;49.19;101772.94;2090690;28;1095;-74
2021/03/09 01:27:06;;;;;;;;;;;;;;;20.80;49.23;101772.94;2082293;28;1410;-74
2021/03/09 01:28:07;;;;;;;;;;;;;;;20.80;49.29;101775.78;2088631;28;1105;-73
2021/03/09 01:29:08;;;;;;;;;;;;;;;20.80;49.22;101767.25;2090802;28;1818;-74
2021/03/09 01:30:08;;;;;;;;;;;;;;;20.80;49.29;101770.09;2081420;28;1149;-74
2021/03/09 01:31:09;;;;;;;;;;;;;;;20.80;49.27;101768.06;2081911;28;1129;-72
2021/03/09 01:32:10;;;;;;;;;;;;;;;20.81;49.50;101769.75;2090290;28;1067;-78
2021/03/09 01:33:11;;;;;;;;;;;;;;;20.80;49.49;101768.06;2090543;28;1176;-75
2021/03/09 01:34:12;;;;;;;;;;;;;;;20.79;49.44;101763.56;2092460;28;1910;-77
2021/03/09 01:35:13;;;;;;;;;;;;;;;20.79;49.57;101760.72;2090818;28;1811;-75
2021/03/09 01:36:13;;;;;;;;;;;;;;;20.79;49.57;101757.88;2090791;28;1063;-75
2021/03/09 01:37:14;;;;;;;;;;;;;;;20.79;49.44;101763.56;2090258;28;2288;-75
2021/03/09 01:38:15;;;;;;;;;;;;;;;20.80;49.45;101758.72;2090571;28;1192;-76
2021/03/09 01:39:16;;;;;;;;;;;;;;;20.80;49.68;101761.56;2087488;28;1705;-76
2021/03/09 01:40:16;;;;;;;;;;;;;;;20.79;49.50;101757.88;2082024;28;1036;-75
2021/03/09 01:41:17;;;;;;;;;;;;;;;20.80;49.63;101762.38;2088152;28;1160;-75
2021/03/09 01:42:18;;;;;;;;;;;;;;;20.79;49.45;101759.88;2089745;28;1219;-74
2021/03/09 01:43:18;;;;;;;;;;;;;;;20.80;49.48;101758.72;2085051;28;1726;-72
2021/03/09 01:44:19;;;;;;;;;;;;;;;20.80;49.60;101761.56;2085698;28;1636;-72
2021/03/09 01:45:20;;;;;;;;;;;;;;;20.79;49.52;101757.88;2090598;28;1680;-74
2021/03/09 01:46:21;;;;;;;;;;;;;;;20.80;49.53;101753.84;2090640;28;1194;-74
2021/03/09 01:47:22;;;;;;;;;;;;;;;20.80;49.61;101755.88;2088146;28;1372;-74
2021/03/09 01:48:23;;;;;;;;;;;;;;;20.81;49.58;101752.69;2087005;28;1794;-73
2021/03/09 01:49:23;;;;;;;;;;;;;;;20.80;49.56;101747.34;2090153;28;1750;-74
2021/03/09 01:50:24;;;;;;;;;;;;;;;20.81;49.66;101746.16;2086252;28;1640;-74
2021/03/09 01:51:28;;;;;;;;;;;;;;;20.82;49.80;101745.84;2088010;28;1091;-74
2021/03/09 01:52:28;;;;;;;;;;;;;;;20.82;49.62;101743.00;2087053;28;1149;-74
2021/03/09 01:53:29;;;;;;;;;;;;;;;20.81;49.54;101738.44;2090569;28;1055;-74
2021/03/09 01:54:30;;;;;;;;;;;;;;;20.82;49.80;101743.00;2087754;28;1902;-74
2021/03/09 01:55:31;;;;;;;;;;;;;;;20.82;49.61;101742.16;2087009;28;1656;-73
2021/03/09 01:56:31;;;;;;;;;;;;;;;20.81;49.60;101737.63;2087076;28;1702;-74
2021/03/09 01:57:33;;;;;;;;;;;;;;;20.81;49.61;101735.59;2090082;28;1654;-73
2021/03/09 01:58:34;;;;;;;;;;;;;;;20.82;49.77;101737.31;2090250;28;1449;-72
2021/03/09 01:59:34;;;;;;;;;;;;;;;20.82;49.77;101737.31;2090562;28;1075;-73
2021/03/09 02:00:35;;;;;;;;;;;;;;;20.83;49.67;101741.81;2084819;28;1698;-72
2021/03/09 02:01:36;;;;;;;;;;;;;;;20.82;49.79;101733.63;2088503;28;2171;-76
2021/03/09 02:02:37;;;;;;;;;;;;;;;20.82;49.76;101734.47;2090320;28;1782;-77
2021/03/09 02:03:38;;;;;;;;;;;;;;;20.82;49.71;101736.47;2093485;28;1140;-77
2021/03/09 02:04:39;;;;;;;;;;;;;;;20.82;49.68;101740.16;2085162;28;1645;-74
2021/03/09 02:05:39;;;;;;;;;;;;;;;20.81;49.79;101738.44;2088546;28;1730;-76
2021/03/09 02:06:40;;;;;;;;;;;;;;;20.82;49.77;101733.63;2089270;28;1766;-81
2021/03/09 02:07:41;;;;;;;;;;;;;;;20.82;49.64;101733.63;2090397;28;1122;-78
2021/03/09 02:08:42;;;;;;;;;;;;;;;20.82;49.58;101734.47;2092115;28;1330;-87
2021/03/09 02:09:42;;;;;;;;;;;;;;;20.85;49.84;101733.78;2090382;28;1215;-73
2021/03/09 02:10:44;;;;;;;;;;;;;;;20.84;49.79;101734.13;2090163;28;1723;-72
2021/03/09 02:11:45;;;;;;;;;;;;;;;20.81;49.66;101726.25;2089996;28;1667;-73
2021/03/09 02:12:46;;;;;;;;;;;;;;;20.77;49.64;101728.91;2090148;28;1625;-74
2021/03/09 02:13:47;;;;;;;;;;;;;;;20.75;49.68;101731.25;2090294;28;2049;-80
2021/03/09 02:14:47;;;;;;;;;;;;;;;20.78;49.49;101722.06;2089889;28;1906;-81
2021/03/09 02:15:48;;;;;;;;;;;;;;;20.77;49.51;101728.91;2090534;28;1139;-75
2021/03/09 02:16:49;;;;;;;;;;;;;;;20.78;49.33;101730.59;2091992;28;1700;-75
2021/03/09 02:17:50;;;;;;;;;;;;;;;20.80;49.31;101733.13;2090217;28;1216;-75
2021/03/09 02:19:08;;;;;;;;;;;;;;;20.78;49.29;101727.75;2089893;28;1659;-77
2021/03/09 02:20:09;;;;;;;;;;;;;;;20.79;49.33;101729.44;2089125;28;2092;-76
2021/03/09 02:21:10;;;;;;;;;;;;;;;20.80;49.34;101727.44;2084853;28;1679;-75
2021/03/09 02:22:11;;;;;;;;;;;;;;;20.80;49.22;101727.44;2089965;28;1044;-75
2021/03/09 02:23:12;;;;;;;;;;;;;;;20.80;49.32;101727.44;2090028;28;1115;-74
2021/03/09 02:24:13;;;;;;;;;;;;;;;20.79;49.14;101726.59;2089409;28;1784;-74
2021/03/09 02:25:13;;;;;;;;;;;;;;;20.80;49.10;101733.13;2089718;28;1103;-77
2021/03/09 02:26:14;;;;;;;;;;;;;;;20.79;49.20;101723.75;2085399;28;1407;-74
2021/03/09 02:27:15;;;;;;;;;;;;;;;20.80;49.28;101724.59;2086915;28;2021;-74
2021/03/09 02:28:16;;;;;;;;;;;;;;;20.79;49.24;101712.38;2088067;28;1604;-74
2021/03/09 02:29:16;;;;;;;;;;;;;;;20.81;49.09;101717.72;2088188;28;1199;-76
2021/03/09 02:30:17;;;;;;;;;;;;;;;20.80;49.06;101719.72;2088176;28;1543;-75
2021/03/09 02:31:18;;;;;;;;;;;;;;;20.80;49.21;101718.91;2088683;28;909;-77
2021/03/09 02:32:19;;;;;;;;;;;;;;;20.81;49.19;101718.53;2089940;28;1143;-77
2021/03/09 02:33:20;;;;;;;;;;;;;;;20.80;49.03;101716.88;2089380;28;1754;-78
2021/03/09 02:34:21;;;;;;;;;;;;;;;20.79;49.02;101715.22;2090108;28;2007;-75
2021/03/09 02:35:22;;;;;;;;;;;;;;;20.79;49.12;101726.59;2088724;28;1695;-74
2021/03/09 02:36:22;;;;;;;;;;;;;;;20.79;49.23;101723.75;2090167;28;1079;-74
2021/03/09 02:37:23;;;;;;;;;;;;;;;20.79;49.11;101725.75;2089581;28;2217;-75
2021/03/09 02:38:24;;;;;;;;;;;;;;;20.78;48.96;101727.75;2090486;28;1675;-74
2021/03/09 02:39:24;;;;;;;;;;;;;;;20.80;49.17;101722.56;2089822;28;1815;-74
2021/03/09 02:40:25;;;;;;;;;;;;;;;20.79;49.24;101712.38;2090240;28;1172;-74
2021/03/09 02:41:26;;;;;;;;;;;;;;;20.78;49.10;101722.06;2092211;28;1036;-72
2021/03/09 02:42:27;;;;;;;;;;;;;;;20.78;49.23;101719.22;2090252;28;1040;-76
2021/03/09 02:43:28;;;;;;;;;;;;;;;20.78;49.17;101715.53;2089685;28;1719;-78
2021/03/09 02:44:28;;;;;;;;;;;;;;;20.79;49.08;101720.06;2093675;28;1584;-74
2021/03/09 02:45:29;;;;;;;;;;;;;;;20.78;49.01;101713.53;2090943;28;1172;-75
2021/03/09 02:46:30;;;;;;;;;;;;;;;20.78;49.13;101722.06;2091730;28;1178;-76
2021/03/09 02:47:31;;;;;;;;;;;;;;;20.78;49.09;101712.69;2090007;28;1593;-76
2021/03/09 02:48:32;;;;;;;;;;;;;;;20.77;49.07;101717.53;2085271;28;1661;-76
2021/03/09 02:49:33;;;;;;;;;;;;;;;20.78;49.33;101724.91;2087906;28;1215;-74
2021/03/09 02:50:34;;;;;;;;;;;;;;;20.78;49.22;101716.38;2089827;28;1687;-72
2021/03/09 02:51:35;;;;;;;;;;;;;;;20.78;49.03;101712.69;2092257;28;1239;-74
2021/03/09 02:52:36;;;;;;;;;;;;;;;20.78;49.18;101709.84;2094076;28;1036;-73
2021/03/09 02:53:37;;;;;;;;;;;;;;;20.78;49.04;101707.00;2089824;28;1758;-72
2021/03/09 02:54:37;;;;;;;;;;;;;;;20.77;49.17;101714.69;2081281;28;1910;-74
2021/03/09 02:55:38;;;;;;;;;;;;;;;20.78;49.12;101712.69;2080631;28;1707;-74
2021/03/09 02:56:39;;;;;;;;;;;;;;;20.77;49.30;101711.84;2089037;28;1149;-74
2021/03/09 02:57:40;;;;;;;;;;;;;;;20.77;49.08;101714.69;2094797;28;1605;-75
2021/03/09 02:58:40;;;;;;;;;;;;;;;20.77;48.98;101702.50;2089930;28;1749;-73
2021/03/09 02:59:41;;;;;;;;;;;;;;;20.77;49.06;101708.19;2092726;28;1469;-73
2021/03/09 03:00:42;;;;;;;;;;;;;;;20.76;49.18;101700.78;2094433;28;1611;-74
2021/03/09 03:01:43;;;;;;;;;;;;;;;20.76;49.19;101706.47;2089855;28;1270;-73
2021/03/09 03:02:44;;;;;;;;;;;;;;;20.76;49.06;101707.34;2084865;28;1297;-73
2021/03/09 03:03:45;;;;;;;;;;;;;;;20.76;48.98;101707.34;2089435;28;1675;-73
2021/03/09 03:04:46;;;;;;;;;;;;;;;20.76;49.02;101698.81;2084912;28;1561;-74
2021/03/09 03:05:47;;;;;;;;;;;;;;;20.77;49.08;101705.34;2094763;28;1032;-73
2021/03/09 03:06:48;;;;;;;;;;;;;;;20.76;49.09;101706.47;2090156;28;1092;-72
2021/03/09 03:07:48;;;;;;;;;;;;;;;20.76;48.82;101707.34;2089569;28;1700;-72
2021/03/09 03:08:49;;;;;;;;;;;;;;;20.77;49.08;101702.50;2088935;28;1711;-72
2021/03/09 03:09:50;;;;;;;;;;;;;;;20.77;49.00;101699.66;2089580;28;1360;-72
2021/03/09 03:10:51;;;;;;;;;;;;;;;20.75;49.09;101705.66;2090053;28;1660;-73
2021/03/09 03:11:51;;;;;;;;;;;;;;;20.76;49.15;101701.66;2090679;28;1067;-73
2021/03/09 03:12:52;;;;;;;;;;;;;;;20.76;49.00;101693.13;2090979;28;1582;-73
2021/03/09 03:13:53;;;;;;;;;;;;;;;20.76;49.07;101701.66;2091650;28;1313;-74
2021/03/09 03:14:54;;;;;;;;;;;;;;;20.76;49.17;101692.25;2093363;28;1902;-74
2021/03/09 03:15:54;;;;;;;;;;;;;;;20.77;49.17;101693.97;2092726;28;1707;-74
2021/03/09 03:16:55;;;;;;;;;;;;;;;20.76;49.09;101700.78;2092834;28;1588;-74
2021/03/09 03:17:58;;;;;;;;;;;;;;;20.76;49.00;101689.41;2092486;28;1629;-75
2021/03/09 03:18:59;;;;;;;;;;;;;;;20.76;49.06;101695.09;2090459;28;1139;-75
2021/03/09 03:20:00;;;;;;;;;;;;;;;20.76;49.04;101690.28;2091926;28;1243;-75
2021/03/09 03:21:01;;;;;;;;;;;;;;;20.77;49.02;101696.81;2090741;28;1745;-75
2021/03/09 03:22:01;;;;;;;;;;;;;;;20.76;49.08;101695.97;2090063;28;1072;-75
2021/03/09 03:23:02;;;;;;;;;;;;;;;20.77;49.12;101696.81;2090404;28;1048;-75
2021/03/09 03:24:03;;;;;;;;;;;;;;;20.76;49.10;101690.28;2091045;28;1148;-74
2021/03/09 03:25:04;;;;;;;;;;;;;;;20.76;49.14;101690.28;2095847;28;1047;-75
2021/03/09 03:26:06;;;;;;;;;;;;;;;20.74;49.04;101692.63;2089432;28;1795;-75
2021/03/09 03:27:06;;;;;;;;;;;;;;;20.76;48.92;101690.28;2090193;28;1027;-75
2021/03/09 03:28:07;;;;;;;;;;;;;;;20.75;49.17;101682.06;2089955;28;1127;-76
2021/03/09 03:29:08;;;;;;;;;;;;;;;20.77;49.03;101696.81;2084382;28;1708;-74
2021/03/09 03:30:09;;;;;;;;;;;;;;;20.76;49.08;101695.97;2090838;28;1110;-74
2021/03/09 03:31:09;;;;;;;;;;;;;;;20.76;49.11;101689.41;2089270;28;1548;-74
2021/03/09 03:32:10;;;;;;;;;;;;;;;20.76;49.12;101695.09;2089973;28;1196;-74
2021/03/09 03:33:11;;;;;;;;;;;;;;;20.76;49.12;101690.28;2090496;28;1059;-74
2021/03/09 03:34:12;;;;;;;;;;;;;;;20.76;49.00;101692.25;2089884;28;1263;-74
2021/03/09 03:35:13;;;;;;;;;;;;;;;20.76;49.13;101693.13;2090485;28;1977;-75
2021/03/09 03:36:14;;;;;;;;;;;;;;;20.76;48.92;101690.28;2092229;28;1683;-74
2021/03/09 03:37:14;;;;;;;;;;;;;;;20.76;48.95;101690.28;2091342;28;2281;-75
2021/03/09 03:38:15;;;;;;;;;;;;;;;20.75;49.16;101682.91;2092913;28;1091;-75
2021/03/09 03:39:16;;;;;;;;;;;;;;;20.76;49.13;101695.97;2093479;28;1578;-75
2021/03/09 03:40:17;;;;;;;;;;;;;;;20.75;48.95;101682.91;2085941;28;1196;-75
2021/03/09 03:41:18;;;;;;;;;;;;;;;20.75;48.98;101696.28;2082081;28;1578;-75
2021/03/09 03:42:18;;;;;;;;;;;;;;;20.75;48.93;101690.59;2094129;28;1161;-74
2021/03/09 03:43:19;;;;;;;;;;;;;;;20.74;49.08;101683.25;2096185;28;1180;-74
2021/03/09 03:44:20;;;;;;;;;;;;;;;20.75;48.93;101684.91;2091402;28;1119;-74
2021/03/09 03:45:20;;;;;;;;;;;;;;;20.74;49.08;101689.78;2093678;28;1058;-75
2021/03/09 03:46:21;;;;;;;;;;;;;;;20.74;48.93;101689.78;2097143;28;1596;-74
2021/03/09 03:47:22;;;;;;;;;;;;;;;20.75;49.05;101687.75;2091434;28;1135;-75
2021/03/09 03:48:46;;;;;;;;;;;;;;;20.75;48.95;101684.91;2091288;28;1203;-74
2021/03/09 03:49:47;;;;;;;;;;;;;;;20.73;48.91;101688.09;2085062;28;1610;-75
2021/03/09 03:50:47;;;;;;;;;;;;;;;20.74;48.91;101686.94;2091175;28;1068;-76
2021/03/09 03:51:48;;;;;;;;;;;;;;;20.74;48.96;101686.09;2086530;28;1565;-75
2021/03/09 03:52:49;;;;;;;;;;;;;;;20.73;49.03;101690.94;2083350;28;1100;-74
2021/03/09 03:53:50;;;;;;;;;;;;;;;20.74;49.10;101680.41;2091212;28;1246;-75
2021/03/09 03:54:50;;;;;;;;;;;;;;;20.74;49.06;101686.94;2086473;28;1977;-75
2021/03/09 03:55:51;;;;;;;;;;;;;;;20.73;48.90;101682.41;2089771;28;1551;-74
2021/03/09 03:56:52;;;;;;;;;;;;;;;20.73;48.88;101685.25;2087891;28;1679;-75
2021/03/09 03:57:52;;;;;;;;;;;;;;;20.73;48.91;101687.25;2089980;28;1803;-76
2021/03/09 03:58:53;;;;;;;;;;;;;;;20.73;48.99;101685.25;2092186;28;1106;-75
2021/03/09 03:59:54;;;;;;;;;;;;;;;20.73;48.97;101673.88;2091799;28;1700;-75
2021/03/09 04:00:55;;;;;;;;;;;;;;;20.73;48.93;101678.72;2092129;28;1079;-75
2021/03/09 04:01:56;;;;;;;;;;;;;;;20.72;48.96;101677.88;2091153;28;1659;-75
2021/03/09 04:02:57;;;;;;;;;;;;;;;20.73;49.00;101673.03;2092564;28;1817;-75
2021/03/09 04:03:58;;;;;;;;;;;;;;;20.73;48.91;101684.41;2085544;28;1405;-75
2021/03/09 04:04:59;;;;;;;;;;;;;;;20.73;49.11;101682.41;2090892;28;1640;-75
2021/03/09 04:06:00;;;;;;;;;;;;;;;20.74;48.93;101683.25;2091002;28;2076;-75
2021/03/09 04:07:01;;;;;;;;;;;;;;;20.74;48.99;101671.88;2093023;28;1115;-75
2021/03/09 04:08:01;;;;;;;;;;;;;;;20.74;48.84;101674.72;2092067;28;1081;-75
2021/03/09 04:09:02;;;;;;;;;;;;;;;20.73;49.11;101673.88;2090875;28;1119;-75
2021/03/09 04:10:03;;;;;;;;;;;;;;;20.73;49.10;101673.03;2090903;28;1909;-75
2021/03/09 04:11:04;;;;;;;;;;;;;;;20.74;49.06;101669.03;2084991;28;1236;-75
2021/03/09 04:12:04;;;;;;;;;;;;;;;20.73;49.06;101673.88;2092291;28;1877;-75
2021/03/09 04:13:05;;;;;;;;;;;;;;;20.73;48.91;101673.88;2091167;28;1416;-75
2021/03/09 04:14:06;;;;;;;;;;;;;;;20.73;49.09;101673.03;2091049;28;1044;-75
2021/03/09 04:15:07;;;;;;;;;;;;;;;20.74;49.12;101677.56;2090457;28;1983;-75
2021/03/09 04:16:07;;;;;;;;;;;;;;;20.75;49.01;101676.38;2085700;28;1114;-75
2021/03/09 04:17:08;;;;;;;;;;;;;;;20.73;49.06;101673.88;2090988;28;1091;-75
2021/03/09 04:18:09;;;;;;;;;;;;;;;20.74;49.08;101675.56;2095227;28;1274;-75
2021/03/09 04:19:11;;;;;;;;;;;;;;;20.74;48.96;101669.03;2096738;28;1134;-75
2021/03/09 04:20:12;;;;;;;;;;;;;;;20.74;49.04;101669.88;2096917;28;1656;-75
2021/03/09 04:21:13;;;;;;;;;;;;;;;20.73;49.02;101662.50;2091110;28;1084;-75
2021/03/09 04:22:14;;;;;;;;;;;;;;;20.73;49.03;101664.50;2091391;28;1766;-75
2021/03/09 04:23:14;;;;;;;;;;;;;;;20.73;48.93;101668.19;2091251;28;1330;-75
2021/03/09 04:24:15;;;;;;;;;;;;;;;20.74;48.91;101664.19;2091034;28;1211;-74
2021/03/09 04:25:16;;;;;;;;;;;;;;;20.74;49.04;101666.19;2080562;28;1650;-75
2021/03/09 04:26:17;;;;;;;;;;;;;;;20.73;49.11;101668.19;2077976;28;1123;-75
2021/03/09 04:27:23;;;;;;;;;;;;;;;20.74;49.16;101667.03;2086821;28;1624;-74
2021/03/09 04:28:24;;;;;;;;;;;;;;;20.74;49.12;101669.88;2094674;28;1724;-75
2021/03/09 04:29:25;;;;;;;;;;;;;;;20.74;49.12;101667.03;2090513;28;1686;-74
2021/03/09 04:30:25;;;;;;;;;;;;;;;20.74;49.12;101667.03;2091353;28;1795;-74
2021/03/09 04:31:26;;;;;;;;;;;;;;;20.74;49.16;101669.03;2090924;28;1125;-74
2021/03/09 04:32:27;;;;;;;;;;;;;;;20.74;49.05;101666.19;2091174;28;1842;-74
2021/03/09 04:33:28;;;;;;;;;;;;;;;20.73;49.09;101665.34;2090562;28;1286;-74
2021/03/09 04:34:29;;;;;;;;;;;;;;;20.74;49.08;101658.50;2091019;28;1580;-75
2021/03/09 04:35:29;;;;;;;;;;;;;;;20.74;49.04;101661.34;2091127;28;1983;-75
2021/03/09 04:36:30;;;;;;;;;;;;;;;20.73;49.14;101659.66;2090522;28;1094;-75
2021/03/09 04:37:31;;;;;;;;;;;;;;;20.73;49.00;101659.66;2087815;28;2460;-75
2021/03/09 04:38:32;;;;;;;;;;;;;;;20.73;49.22;101656.81;2086845;28;1165;-75
2021/03/09 04:39:32;;;;;;;;;;;;;;;20.73;49.25;101658.81;2091096;28;1087;-74
2021/03/09 04:40:33;;;;;;;;;;;;;;;20.73;49.18;101656.81;2089760;28;1771;-75
2021/03/09 04:41:34;;;;;;;;;;;;;;;20.73;49.14;101655.97;2090787;28;1192;-74
2021/03/09 04:42:35;;;;;;;;;;;;;;;20.73;49.11;101658.81;2089963;28;1778;-75
2021/03/09 04:43:35;;;;;;;;;;;;;;;20.73;49.15;101668.19;2088524;28;1643;-75
2021/03/09 04:44:36;;;;;;;;;;;;;;;20.73;49.21;101655.97;2084588;28;1385;-74
2021/03/09 04:45:37;;;;;;;;;;;;;;;20.73;49.15;101665.34;2089302;28;1115;-74
2021/03/09 04:46:38;;;;;;;;;;;;;;;20.73;49.14;101661.66;2086583;28;1076;-74
2021/03/09 04:47:39;;;;;;;;;;;;;;;20.73;49.33;101656.81;2089037;28;1639;-74
2021/03/09 04:48:40;;;;;;;;;;;;;;;20.74;49.31;101654.81;2095354;28;1299;-74
2021/03/09 04:49:41;;;;;;;;;;;;;;;20.73;49.18;101658.81;2093328;28;1063;-74
2021/03/09 04:50:42;;;;;;;;;;;;;;;20.72;49.17;101660.81;2091808;28;1644;-74
2021/03/09 04:51:43;;;;;;;;;;;;;;;20.73;49.35;101668.19;2090761;28;783;-74
2021/03/09 04:52:44;;;;;;;;;;;;;;;20.73;49.33;101656.81;2093280;28;1548;-73
2021/03/09 04:53:44;;;;;;;;;;;;;;;20.74;49.25;101657.66;2090953;28;1083;-73
2021/03/09 04:54:45;;;;;;;;;;;;;;;20.72;49.27;101652.28;2090680;28;1918;-74
2021/03/09 04:55:46;;;;;;;;;;;;;;;20.73;49.17;101653.97;2091476;28;1718;-74
2021/03/09 04:56:47;;;;;;;;;;;;;;;20.74;49.16;101654.81;2091423;28;1259;-74
2021/03/09 04:57:48;;;;;;;;;;;;;;;20.73;49.18;101651.13;2087842;28;1624;-73
2021/03/09 04:58:49;;;;;;;;;;;;;;;20.74;49.15;101658.50;2086907;28;1068;-74
2021/03/09 04:59:49;;;;;;;;;;;;;;;20.73;49.32;101653.97;2084704;28;1102;-74
2021/03/09 05:00:50;;;;;;;;;;;;;;;20.73;49.18;101645.44;2090635;28;1736;-74
2021/03/09 05:01:51;;;;;;;;;;;;;;;20.74;49.17;101646.28;2091027;28;1127;-74
2021/03/09 05:02:52;;;;;;;;;;;;;;;20.74;49.27;101647.13;2084639;28;1698;-74
2021/03/09 05:03:53;;;;;;;;;;;;;;;20.73;49.42;101648.28;2091471;28;1110;-74
2021/03/09 05:04:54;;;;;;;;;;;;;;;20.74;49.16;101643.44;2089812;28;1809;-74
2021/03/09 05:05:55;;;;;;;;;;;;;;;20.74;49.22;101643.44;2088754;28;1664;-74
2021/03/09 05:06:55;;;;;;;;;;;;;;;20.74;49.18;101646.28;2091674;28;1060;-73
2021/03/09 05:07:56;;;;;;;;;;;;;;;20.74;49.17;101643.44;2092764;28;1861;-74
2021/03/09 05:08:57;;;;;;;;;;;;;;;20.74;49.32;101641.44;2090386;28;1619;-75
2021/03/09 05:09:58;;;;;;;;;;;;;;;20.74;49.16;101647.13;2091597;28;1079;-74
2021/03/09 05:10:59;;;;;;;;;;;;;;;20.73;49.30;101648.28;2093926;28;1070;-74
2021/03/09 05:12:04;;;;;;;;;;;;;;;20.73;49.18;101645.44;2090212;28;2054;-74
2021/03/09 05:13:05;;;;;;;;;;;;;;;20.73;49.24;101638.91;2089211;28;1756;-74
2021/03/09 05:14:06;;;;;;;;;;;;;;;20.72;49.24;101638.06;2093153;28;920;-74
2021/03/09 05:15:06;;;;;;;;;;;;;;;20.74;49.33;101647.13;2090776;28;1910;-74
2021/03/09 05:16:07;;;;;;;;;;;;;;;20.73;49.17;101648.28;2086326;28;1363;-75
2021/03/09 05:17:08;;;;;;;;;;;;;;;20.73;49.18;101645.44;2092987;28;1446;-75
2021/03/09 05:18:09;;;;;;;;;;;;;;;20.73;49.16;101642.59;2090674;28;1691;-74